sensor_id;sensor_type;location;lat;lon;timestamp;P1;durP1;ratioP1;P2;durP2;ratioP2
18100;SDS011;9177;49.156;8.142;2023-11-21T00:00:12;36.67;;;33.87;;
18100;SDS011;9177;49.156;8.142;2023-11-21T00:02:41;38.40;;;35.50;;
18100;SDS011;9177;49.156;8.142;2023-11-21T00:05:11;36.33;;;33.57;;
18100;SDS011;9177;49.156;8.142;2023-11-21T00:07:40;36.97;;;34.27;;
18100;SDS011;9177;49.156;8.142;2023-11-21T00:10:08;35.87;;;33.17;;
18100;SDS011;9177;49.156;8.142;2023-11-21T00:12:39;39.20;;;36.17;;
18100;SDS011;9177;49.156;8.142;2023-11-21T00:15:07;34.73;;;32.03;;
18100;SDS011;9177;49.156;8.142;2023-11-21T00:17:36;32.73;;;30.23;;
18100;SDS011;9177;49.156;8.142;2023-11-21T00:20:04;32.80;;;30.30;;
18100;SDS011;9177;49.156;8.142;2023-11-21T00:22:34;35.13;;;32.43;;
18100;SDS011;9177;49.156;8.142;2023-11-21T00:25:01;33.83;;;31.23;;
18100;SDS011;9177;49.156;8.142;2023-11-21T00:27:29;32.80;;;30.40;;
18100;SDS011;9177;49.156;8.142;2023-11-21T00:29:56;34.07;;;31.57;;
18100;SDS011;9177;49.156;8.142;2023-11-21T00:32:23;31.37;;;28.97;;
18100;SDS011;9177;49.156;8.142;2023-11-21T00:34:50;31.13;;;28.83;;
18100;SDS011;9177;49.156;8.142;2023-11-21T00:37:17;29.30;;;27.10;;
18100;SDS011;9177;49.156;8.142;2023-11-21T00:39:45;27.60;;;25.60;;
18100;SDS011;9177;49.156;8.142;2023-11-21T00:42:12;27.17;;;25.17;;
18100;SDS011;9177;49.156;8.142;2023-11-21T00:44:39;28.27;;;26.07;;
18100;SDS011;9177;49.156;8.142;2023-11-21T00:47:06;27.97;;;25.77;;
18100;SDS011;9177;49.156;8.142;2023-11-21T00:49:33;26.97;;;24.93;;
18100;SDS011;9177;49.156;8.142;2023-11-21T00:52:00;26.63;;;24.70;;
18100;SDS011;9177;49.156;8.142;2023-11-21T00:54:28;27.13;;;25.13;;
18100;SDS011;9177;49.156;8.142;2023-11-21T00:56:56;25.43;;;23.63;;
18100;SDS011;9177;49.156;8.142;2023-11-21T00:59:23;24.93;;;23.03;;
18100;SDS011;9177;49.156;8.142;2023-11-21T01:01:50;26.40;;;24.23;;
18100;SDS011;9177;49.156;8.142;2023-11-21T01:04:18;24.40;;;22.50;;
18100;SDS011;9177;49.156;8.142;2023-11-21T01:06:45;25.30;;;23.40;;
18100;SDS011;9177;49.156;8.142;2023-11-21T01:09:12;24.77;;;22.97;;
18100;SDS011;9177;49.156;8.142;2023-11-21T01:11:39;22.30;;;20.60;;
18100;SDS011;9177;49.156;8.142;2023-11-21T01:14:07;22.43;;;20.83;;
18100;SDS011;9177;49.156;8.142;2023-11-21T01:16:35;21.90;;;20.20;;
18100;SDS011;9177;49.156;8.142;2023-11-21T01:19:02;21.07;;;19.57;;
18100;SDS011;9177;49.156;8.142;2023-11-21T01:21:29;21.80;;;20.20;;
18100;SDS011;9177;49.156;8.142;2023-11-21T01:23:57;20.63;;;19.13;;
18100;SDS011;9177;49.156;8.142;2023-11-21T01:26:23;20.33;;;18.87;;
18100;SDS011;9177;49.156;8.142;2023-11-21T01:28:50;21.10;;;19.60;;
18100;SDS011;9177;49.156;8.142;2023-11-21T01:31:18;20.30;;;18.80;;
18100;SDS011;9177;49.156;8.142;2023-11-21T01:33:45;19.97;;;18.37;;
18100;SDS011;9177;49.156;8.142;2023-11-21T01:36:13;20.03;;;18.53;;
18100;SDS011;9177;49.156;8.142;2023-11-21T01:38:40;19.57;;;18.17;;
18100;SDS011;9177;49.156;8.142;2023-11-21T01:41:08;19.97;;;18.47;;
18100;SDS011;9177;49.156;8.142;2023-11-21T01:43:36;17.93;;;16.53;;
18100;SDS011;9177;49.156;8.142;2023-11-21T01:46:03;18.20;;;16.90;;
18100;SDS011;9177;49.156;8.142;2023-11-21T01:48:33;18.20;;;16.87;;
18100;SDS011;9177;49.156;8.142;2023-11-21T01:51:00;18.07;;;16.70;;
18100;SDS011;9177;49.156;8.142;2023-11-21T01:53:28;18.00;;;16.70;;
18100;SDS011;9177;49.156;8.142;2023-11-21T01:55:55;17.87;;;16.47;;
18100;SDS011;9177;49.156;8.142;2023-11-21T01:58:22;16.53;;;15.30;;
18100;SDS011;9177;49.156;8.142;2023-11-21T02:00:54;15.70;;;14.50;;
18100;SDS011;9177;49.156;8.142;2023-11-21T02:03:22;17.27;;;15.97;;
18100;SDS011;9177;49.156;8.142;2023-11-21T02:05:50;16.90;;;15.57;;
18100;SDS011;9177;49.156;8.142;2023-11-21T02:08:17;16.20;;;14.90;;
18100;SDS011;9177;49.156;8.142;2023-11-21T02:10:44;15.10;;;13.90;;
18100;SDS011;9177;49.156;8.142;2023-11-21T02:13:12;15.03;;;13.83;;
18100;SDS011;9177;49.156;8.142;2023-11-21T02:15:40;15.93;;;14.73;;
18100;SDS011;9177;49.156;8.142;2023-11-21T02:18:06;15.60;;;14.47;;
18100;SDS011;9177;49.156;8.142;2023-11-21T02:20:36;14.53;;;13.43;;
18100;SDS011;9177;49.156;8.142;2023-11-21T02:23:05;15.43;;;14.23;;
18100;SDS011;9177;49.156;8.142;2023-11-21T02:25:33;15.13;;;14.03;;
18100;SDS011;9177;49.156;8.142;2023-11-21T02:28:02;13.93;;;12.73;;
18100;SDS011;9177;49.156;8.142;2023-11-21T02:30:30;14.80;;;13.70;;
18100;SDS011;9177;49.156;8.142;2023-11-21T02:32:57;13.77;;;12.77;;
18100;SDS011;9177;49.156;8.142;2023-11-21T02:35:24;13.50;;;12.50;;
18100;SDS011;9177;49.156;8.142;2023-11-21T02:37:52;13.27;;;12.27;;
18100;SDS011;9177;49.156;8.142;2023-11-21T02:40:21;13.17;;;12.17;;
18100;SDS011;9177;49.156;8.142;2023-11-21T02:42:49;13.47;;;12.47;;
18100;SDS011;9177;49.156;8.142;2023-11-21T02:45:17;11.87;;;10.97;;
18100;SDS011;9177;49.156;8.142;2023-11-21T02:47:46;12.17;;;11.33;;
18100;SDS011;9177;49.156;8.142;2023-11-21T02:50:14;12.20;;;11.30;;
18100;SDS011;9177;49.156;8.142;2023-11-21T02:52:41;11.57;;;10.67;;
18100;SDS011;9177;49.156;8.142;2023-11-21T02:55:09;11.50;;;10.70;;
18100;SDS011;9177;49.156;8.142;2023-11-21T02:57:37;11.80;;;10.90;;
18100;SDS011;9177;49.156;8.142;2023-11-21T03:00:05;11.33;;;10.43;;
18100;SDS011;9177;49.156;8.142;2023-11-21T03:02:33;11.70;;;10.80;;
18100;SDS011;9177;49.156;8.142;2023-11-21T03:05:01;11.23;;;10.33;;
18100;SDS011;9177;49.156;8.142;2023-11-21T03:07:30;11.57;;;10.67;;
18100;SDS011;9177;49.156;8.142;2023-11-21T03:09:57;11.87;;;10.97;;
18100;SDS011;9177;49.156;8.142;2023-11-21T03:12:23;10.57;;;9.77;;
18100;SDS011;9177;49.156;8.142;2023-11-21T03:14:52;10.37;;;9.57;;
18100;SDS011;9177;49.156;8.142;2023-11-21T03:17:19;11.20;;;10.40;;
18100;SDS011;9177;49.156;8.142;2023-11-21T03:19:46;9.67;;;8.97;;
18100;SDS011;9177;49.156;8.142;2023-11-21T03:22:13;9.93;;;9.23;;
18100;SDS011;9177;49.156;8.142;2023-11-21T03:24:40;10.20;;;9.40;;
18100;SDS011;9177;49.156;8.142;2023-11-21T03:27:07;9.50;;;8.80;;
18100;SDS011;9177;49.156;8.142;2023-11-21T03:29:34;9.73;;;9.03;;
18100;SDS011;9177;49.156;8.142;2023-11-21T03:32:02;9.20;;;8.50;;
18100;SDS011;9177;49.156;8.142;2023-11-21T03:34:29;9.33;;;8.53;;
18100;SDS011;9177;49.156;8.142;2023-11-21T03:36:56;9.80;;;9.10;;
18100;SDS011;9177;49.156;8.142;2023-11-21T03:39:23;9.03;;;8.33;;
18100;SDS011;9177;49.156;8.142;2023-11-21T03:41:51;8.27;;;7.67;;
18100;SDS011;9177;49.156;8.142;2023-11-21T03:44:18;9.37;;;8.57;;
18100;SDS011;9177;49.156;8.142;2023-11-21T03:46:44;9.00;;;8.33;;
18100;SDS011;9177;49.156;8.142;2023-11-21T03:49:12;8.30;;;7.70;;
18100;SDS011;9177;49.156;8.142;2023-11-21T03:51:39;8.30;;;7.70;;
18100;SDS011;9177;49.156;8.142;2023-11-21T03:54:05;8.87;;;8.17;;
18100;SDS011;9177;49.156;8.142;2023-11-21T03:56:32;7.50;;;6.90;;
18100;SDS011;9177;49.156;8.142;2023-11-21T03:58:59;8.57;;;7.97;;
18100;SDS011;9177;49.156;8.142;2023-11-21T04:01:26;7.97;;;7.40;;
18100;SDS011;9177;49.156;8.142;2023-11-21T04:03:53;8.07;;;7.47;;
18100;SDS011;9177;49.156;8.142;2023-11-21T04:06:24;8.53;;;7.93;;
18100;SDS011;9177;49.156;8.142;2023-11-21T04:08:50;7.63;;;7.13;;
18100;SDS011;9177;49.156;8.142;2023-11-21T04:11:17;7.33;;;6.83;;
18100;SDS011;9177;49.156;8.142;2023-11-21T04:13:44;7.43;;;6.90;;
18100;SDS011;9177;49.156;8.142;2023-11-21T04:16:13;7.03;;;6.53;;
18100;SDS011;9177;49.156;8.142;2023-11-21T04:18:40;6.60;;;6.10;;
18100;SDS011;9177;49.156;8.142;2023-11-21T04:21:10;6.83;;;6.33;;
18100;SDS011;9177;49.156;8.142;2023-11-21T04:23:38;6.13;;;5.73;;
18100;SDS011;9177;49.156;8.142;2023-11-21T04:26:06;6.90;;;6.33;;
18100;SDS011;9177;49.156;8.142;2023-11-21T04:28:32;6.80;;;6.30;;
18100;SDS011;9177;49.156;8.142;2023-11-21T04:30:59;6.90;;;6.40;;
18100;SDS011;9177;49.156;8.142;2023-11-21T04:33:27;6.77;;;6.30;;
18100;SDS011;9177;49.156;8.142;2023-11-21T04:35:54;6.50;;;6.00;;
18100;SDS011;9177;49.156;8.142;2023-11-21T04:38:21;6.40;;;5.90;;
18100;SDS011;9177;49.156;8.142;2023-11-21T04:40:49;6.53;;;5.97;;
18100;SDS011;9177;49.156;8.142;2023-11-21T04:43:16;6.13;;;5.72;;
18100;SDS011;9177;49.156;8.142;2023-11-21T04:45:43;5.87;;;5.47;;
18100;SDS011;9177;49.156;8.142;2023-11-21T04:48:10;6.03;;;5.53;;
18100;SDS011;9177;49.156;8.142;2023-11-21T04:50:37;6.13;;;5.68;;
18100;SDS011;9177;49.156;8.142;2023-11-21T04:53:04;5.57;;;5.17;;
18100;SDS011;9177;49.156;8.142;2023-11-21T04:55:31;5.70;;;5.30;;
18100;SDS011;9177;49.156;8.142;2023-11-21T04:57:59;5.78;;;5.38;;
18100;SDS011;9177;49.156;8.142;2023-11-21T05:00:26;5.93;;;5.47;;
18100;SDS011;9177;49.156;8.142;2023-11-21T05:02:53;5.10;;;4.80;;
18100;SDS011;9177;49.156;8.142;2023-11-21T05:08:42;5.00;;;4.70;;
18100;SDS011;9177;49.156;8.142;2023-11-21T05:11:09;4.72;;;4.43;;
18100;SDS011;9177;49.156;8.142;2023-11-21T05:13:37;5.00;;;4.60;;
18100;SDS011;9177;49.156;8.142;2023-11-21T05:16:05;4.10;;;3.80;;
18100;SDS011;9177;49.156;8.142;2023-11-21T05:18:32;4.70;;;4.40;;
18100;SDS011;9177;49.156;8.142;2023-11-21T05:20:59;5.10;;;4.70;;
18100;SDS011;9177;49.156;8.142;2023-11-21T05:23:27;4.70;;;4.40;;
18100;SDS011;9177;49.156;8.142;2023-11-21T05:25:53;4.40;;;4.10;;
18100;SDS011;9177;49.156;8.142;2023-11-21T05:28:21;3.95;;;3.75;;
18100;SDS011;9177;49.156;8.142;2023-11-21T05:30:49;4.73;;;4.43;;
18100;SDS011;9177;49.156;8.142;2023-11-21T05:33:16;4.77;;;4.47;;
18100;SDS011;9177;49.156;8.142;2023-11-21T05:35:43;4.77;;;4.47;;
18100;SDS011;9177;49.156;8.142;2023-11-21T05:38:10;4.13;;;3.83;;
18100;SDS011;9177;49.156;8.142;2023-11-21T05:40:37;4.07;;;3.77;;
18100;SDS011;9177;49.156;8.142;2023-11-21T05:43:04;4.60;;;4.20;;
18100;SDS011;9177;49.156;8.142;2023-11-21T05:45:33;4.32;;;3.92;;
18100;SDS011;9177;49.156;8.142;2023-11-21T05:48:01;4.28;;;3.97;;
18100;SDS011;9177;49.156;8.142;2023-11-21T05:50:28;4.17;;;3.80;;
18100;SDS011;9177;49.156;8.142;2023-11-21T05:52:56;4.03;;;3.72;;
18100;SDS011;9177;49.156;8.142;2023-11-21T05:55:25;3.73;;;3.53;;
18100;SDS011;9177;49.156;8.142;2023-11-21T05:57:52;3.90;;;3.70;;
18100;SDS011;9177;49.156;8.142;2023-11-21T06:00:19;4.47;;;4.13;;
18100;SDS011;9177;49.156;8.142;2023-11-21T06:02:46;3.92;;;3.67;;
18100;SDS011;9177;49.156;8.142;2023-11-21T06:05:17;3.78;;;3.47;;
18100;SDS011;9177;49.156;8.142;2023-11-21T06:07:44;3.65;;;3.45;;
18100;SDS011;9177;49.156;8.142;2023-11-21T06:10:12;3.75;;;3.50;;
18100;SDS011;9177;49.156;8.142;2023-11-21T06:12:44;3.42;;;3.20;;
18100;SDS011;9177;49.156;8.142;2023-11-21T06:15:11;3.50;;;3.30;;
18100;SDS011;9177;49.156;8.142;2023-11-21T06:17:39;3.53;;;3.33;;
18100;SDS011;9177;49.156;8.142;2023-11-21T06:20:08;3.78;;;3.50;;
18100;SDS011;9177;49.156;8.142;2023-11-21T06:22:40;3.70;;;3.40;;
18100;SDS011;9177;49.156;8.142;2023-11-21T06:25:08;3.75;;;3.42;;
18100;SDS011;9177;49.156;8.142;2023-11-21T06:27:39;3.60;;;3.35;;
18100;SDS011;9177;49.156;8.142;2023-11-21T06:30:07;3.40;;;3.20;;
18100;SDS011;9177;49.156;8.142;2023-11-21T06:32:35;3.42;;;3.13;;
18100;SDS011;9177;49.156;8.142;2023-11-21T06:35:02;3.33;;;3.13;;
18100;SDS011;9177;49.156;8.142;2023-11-21T06:37:29;3.55;;;3.30;;
18100;SDS011;9177;49.156;8.142;2023-11-21T06:39:58;3.35;;;3.15;;
18100;SDS011;9177;49.156;8.142;2023-11-21T06:42:26;3.28;;;3.08;;
18100;SDS011;9177;49.156;8.142;2023-11-21T06:44:54;3.38;;;3.17;;
18100;SDS011;9177;49.156;8.142;2023-11-21T06:47:22;3.25;;;3.05;;
18100;SDS011;9177;49.156;8.142;2023-11-21T06:49:50;3.30;;;3.00;;
18100;SDS011;9177;49.156;8.142;2023-11-21T06:52:17;3.33;;;3.13;;
18100;SDS011;9177;49.156;8.142;2023-11-21T06:54:44;3.20;;;2.97;;
18100;SDS011;9177;49.156;8.142;2023-11-21T06:57:13;3.70;;;3.40;;
18100;SDS011;9177;49.156;8.142;2023-11-21T06:59:42;3.42;;;2.90;;
18100;SDS011;9177;49.156;8.142;2023-11-21T07:02:11;3.20;;;3.00;;
18100;SDS011;9177;49.156;8.142;2023-11-21T07:04:39;3.08;;;2.88;;
18100;SDS011;9177;49.156;8.142;2023-11-21T07:07:06;3.10;;;2.90;;
18100;SDS011;9177;49.156;8.142;2023-11-21T07:09:33;3.28;;;3.00;;
18100;SDS011;9177;49.156;8.142;2023-11-21T07:12:00;3.13;;;2.85;;
18100;SDS011;9177;49.156;8.142;2023-11-21T07:14:30;3.45;;;3.22;;
18100;SDS011;9177;49.156;8.142;2023-11-21T07:16:57;2.80;;;2.60;;
18100;SDS011;9177;49.156;8.142;2023-11-21T07:19:24;3.20;;;3.00;;
18100;SDS011;9177;49.156;8.142;2023-11-21T07:21:51;3.17;;;2.97;;
18100;SDS011;9177;49.156;8.142;2023-11-21T07:24:18;2.83;;;2.63;;
18100;SDS011;9177;49.156;8.142;2023-11-21T07:26:45;3.17;;;2.97;;
18100;SDS011;9177;49.156;8.142;2023-11-21T07:29:13;2.78;;;2.58;;
18100;SDS011;9177;49.156;8.142;2023-11-21T07:31:41;2.65;;;2.45;;
18100;SDS011;9177;49.156;8.142;2023-11-21T07:34:08;2.80;;;2.60;;
18100;SDS011;9177;49.156;8.142;2023-11-21T07:36:37;2.60;;;2.40;;
18100;SDS011;9177;49.156;8.142;2023-11-21T07:39:04;2.95;;;2.75;;
18100;SDS011;9177;49.156;8.142;2023-11-21T07:41:31;2.92;;;2.72;;
18100;SDS011;9177;49.156;8.142;2023-11-21T07:43:58;2.90;;;2.70;;
18100;SDS011;9177;49.156;8.142;2023-11-21T07:46:25;2.70;;;2.50;;
18100;SDS011;9177;49.156;8.142;2023-11-21T07:48:54;2.67;;;2.47;;
18100;SDS011;9177;49.156;8.142;2023-11-21T07:51:21;2.80;;;2.60;;
18100;SDS011;9177;49.156;8.142;2023-11-21T07:53:48;3.17;;;2.97;;
18100;SDS011;9177;49.156;8.142;2023-11-21T07:56:15;4.53;;;2.67;;
18100;SDS011;9177;49.156;8.142;2023-11-21T07:58:43;2.60;;;2.40;;
18100;SDS011;9177;49.156;8.142;2023-11-21T08:01:10;6.80;;;2.70;;
18100;SDS011;9177;49.156;8.142;2023-11-21T08:03:37;4.50;;;2.50;;
18100;SDS011;9177;49.156;8.142;2023-11-21T08:06:06;2.63;;;2.42;;
18100;SDS011;9177;49.156;8.142;2023-11-21T08:08:34;2.75;;;2.50;;
18100;SDS011;9177;49.156;8.142;2023-11-21T08:11:01;3.13;;;2.90;;
18100;SDS011;9177;49.156;8.142;2023-11-21T08:13:29;2.47;;;2.33;;
18100;SDS011;9177;49.156;8.142;2023-11-21T08:15:57;8.10;;;2.97;;
18100;SDS011;9177;49.156;8.142;2023-11-21T08:18:28;34.97;;;5.25;;
18100;SDS011;9177;49.156;8.142;2023-11-21T08:20:55;88.50;;;9.90;;
18100;SDS011;9177;49.156;8.142;2023-11-21T08:23:24;101.03;;;10.77;;
18100;SDS011;9177;49.156;8.142;2023-11-21T08:25:51;76.28;;;9.45;;
18100;SDS011;9177;49.156;8.142;2023-11-21T08:28:19;74.18;;;9.13;;
18100;SDS011;9177;49.156;8.142;2023-11-21T08:30:47;75.32;;;9.48;;
18100;SDS011;9177;49.156;8.142;2023-11-21T08:33:14;68.80;;;9.70;;
18100;SDS011;9177;49.156;8.142;2023-11-21T08:35:41;60.70;;;8.50;;
18100;SDS011;9177;49.156;8.142;2023-11-21T08:38:08;64.75;;;10.38;;
18100;SDS011;9177;49.156;8.142;2023-11-21T08:40:37;66.43;;;8.80;;
18100;SDS011;9177;49.156;8.142;2023-11-21T08:43:04;64.47;;;10.02;;
18100;SDS011;9177;49.156;8.142;2023-11-21T08:45:32;70.07;;;9.15;;
18100;SDS011;9177;49.156;8.142;2023-11-21T08:48:00;62.00;;;9.15;;
18100;SDS011;9177;49.156;8.142;2023-11-21T08:50:27;44.13;;;9.27;;
18100;SDS011;9177;49.156;8.142;2023-11-21T08:52:54;65.20;;;9.05;;
18100;SDS011;9177;49.156;8.142;2023-11-21T08:55:21;60.78;;;8.07;;
18100;SDS011;9177;49.156;8.142;2023-11-21T08:57:49;60.90;;;8.27;;
18100;SDS011;9177;49.156;8.142;2023-11-21T09:00:17;53.28;;;7.38;;
18100;SDS011;9177;49.156;8.142;2023-11-21T09:02:44;44.55;;;7.90;;
18100;SDS011;9177;49.156;8.142;2023-11-21T09:05:12;42.58;;;7.95;;
18100;SDS011;9177;49.156;8.142;2023-11-21T09:07:41;50.95;;;8.57;;
18100;SDS011;9177;49.156;8.142;2023-11-21T09:10:08;44.95;;;8.95;;
18100;SDS011;9177;49.156;8.142;2023-11-21T09:12:36;42.70;;;7.57;;
18100;SDS011;9177;49.156;8.142;2023-11-21T09:15:06;30.08;;;6.35;;
18100;SDS011;9177;49.156;8.142;2023-11-21T09:17:34;34.80;;;7.78;;
18100;SDS011;9177;49.156;8.142;2023-11-21T09:20:02;32.75;;;7.25;;
18100;SDS011;9177;49.156;8.142;2023-11-21T09:22:31;36.15;;;7.78;;
18100;SDS011;9177;49.156;8.142;2023-11-21T09:24:58;32.65;;;7.30;;
18100;SDS011;9177;49.156;8.142;2023-11-21T09:27:25;31.52;;;6.45;;
18100;SDS011;9177;49.156;8.142;2023-11-21T09:29:52;35.75;;;6.75;;
18100;SDS011;9177;49.156;8.142;2023-11-21T09:32:24;28.05;;;6.05;;
18100;SDS011;9177;49.156;8.142;2023-11-21T09:34:51;31.45;;;6.68;;
18100;SDS011;9177;49.156;8.142;2023-11-21T09:37:20;30.23;;;6.43;;
18100;SDS011;9177;49.156;8.142;2023-11-21T09:39:47;29.77;;;6.50;;
18100;SDS011;9177;49.156;8.142;2023-11-21T09:42:15;28.33;;;5.60;;
18100;SDS011;9177;49.156;8.142;2023-11-21T09:44:48;24.10;;;5.40;;
18100;SDS011;9177;49.156;8.142;2023-11-21T09:47:27;28.25;;;5.85;;
18100;SDS011;9177;49.156;8.142;2023-11-21T09:49:55;21.25;;;6.20;;
18100;SDS011;9177;49.156;8.142;2023-11-21T09:52:26;23.38;;;6.00;;
18100;SDS011;9177;49.156;8.142;2023-11-21T09:54:55;25.15;;;5.32;;
18100;SDS011;9177;49.156;8.142;2023-11-21T09:57:23;26.67;;;5.57;;
18100;SDS011;9177;49.156;8.142;2023-11-21T09:59:51;19.65;;;5.47;;
18100;SDS011;9177;49.156;8.142;2023-11-21T10:02:26;20.95;;;5.53;;
18100;SDS011;9177;49.156;8.142;2023-11-21T10:04:55;19.83;;;4.93;;
18100;SDS011;9177;49.156;8.142;2023-11-21T10:07:24;15.32;;;4.70;;
18100;SDS011;9177;49.156;8.142;2023-11-21T10:09:52;16.35;;;4.78;;
18100;SDS011;9177;49.156;8.142;2023-11-21T10:12:21;20.08;;;5.38;;
18100;SDS011;9177;49.156;8.142;2023-11-21T10:14:51;22.75;;;5.10;;
18100;SDS011;9177;49.156;8.142;2023-11-21T10:17:21;22.90;;;5.00;;
18100;SDS011;9177;49.156;8.142;2023-11-21T10:19:52;16.58;;;4.82;;
18100;SDS011;9177;49.156;8.142;2023-11-21T10:22:21;18.80;;;4.38;;
18100;SDS011;9177;49.156;8.142;2023-11-21T10:24:49;15.18;;;4.93;;
18100;SDS011;9177;49.156;8.142;2023-11-21T10:27:16;13.32;;;4.30;;
18100;SDS011;9177;49.156;8.142;2023-11-21T10:29:43;16.42;;;4.47;;
18100;SDS011;9177;49.156;8.142;2023-11-21T10:32:11;16.58;;;4.10;;
18100;SDS011;9177;49.156;8.142;2023-11-21T10:34:38;11.63;;;4.57;;
18100;SDS011;9177;49.156;8.142;2023-11-21T10:37:16;10.35;;;3.90;;
18100;SDS011;9177;49.156;8.142;2023-11-21T10:39:45;11.02;;;3.90;;
18100;SDS011;9177;49.156;8.142;2023-11-21T10:42:15;16.30;;;3.95;;
18100;SDS011;9177;49.156;8.142;2023-11-21T10:44:45;11.27;;;3.47;;
18100;SDS011;9177;49.156;8.142;2023-11-21T10:47:13;15.95;;;4.32;;
18100;SDS011;9177;49.156;8.142;2023-11-21T10:49:41;16.27;;;4.28;;
18100;SDS011;9177;49.156;8.142;2023-11-21T10:52:08;13.25;;;3.92;;
18100;SDS011;9177;49.156;8.142;2023-11-21T10:54:43;12.88;;;3.95;;
18100;SDS011;9177;49.156;8.142;2023-11-21T10:57:10;12.23;;;3.90;;
18100;SDS011;9177;49.156;8.142;2023-11-21T10:59:43;9.63;;;3.47;;
18100;SDS011;9177;49.156;8.142;2023-11-21T11:02:15;12.45;;;3.45;;
18100;SDS011;9177;49.156;8.142;2023-11-21T11:04:50;7.93;;;3.40;;
18100;SDS011;9177;49.156;8.142;2023-11-21T11:07:20;10.55;;;3.53;;
18100;SDS011;9177;49.156;8.142;2023-11-21T11:09:54;9.73;;;4.05;;
18100;SDS011;9177;49.156;8.142;2023-11-21T11:12:21;10.88;;;3.85;;
18100;SDS011;9177;49.156;8.142;2023-11-21T11:14:48;9.55;;;3.47;;
18100;SDS011;9177;49.156;8.142;2023-11-21T11:17:16;8.85;;;3.30;;
18100;SDS011;9177;49.156;8.142;2023-11-21T11:19:45;9.93;;;3.58;;
18100;SDS011;9177;49.156;8.142;2023-11-21T11:22:16;10.52;;;3.15;;
18100;SDS011;9177;49.156;8.142;2023-11-21T11:24:58;7.75;;;3.30;;
18100;SDS011;9177;49.156;8.142;2023-11-21T11:27:42;11.30;;;3.72;;
18100;SDS011;9177;49.156;8.142;2023-11-21T11:30:21;14.90;;;3.65;;
18100;SDS011;9177;49.156;8.142;2023-11-21T11:33:05;7.88;;;3.08;;
18100;SDS011;9177;49.156;8.142;2023-11-21T11:35:39;8.40;;;3.17;;
18100;SDS011;9177;49.156;8.142;2023-11-21T11:38:13;9.55;;;3.20;;
18100;SDS011;9177;49.156;8.142;2023-11-21T11:40:44;8.40;;;3.25;;
18100;SDS011;9177;49.156;8.142;2023-11-21T11:43:12;8.85;;;3.28;;
18100;SDS011;9177;49.156;8.142;2023-11-21T11:45:40;8.82;;;3.17;;
18100;SDS011;9177;49.156;8.142;2023-11-21T11:48:07;6.78;;;2.80;;
18100;SDS011;9177;49.156;8.142;2023-11-21T11:50:41;9.93;;;3.47;;
18100;SDS011;9177;49.156;8.142;2023-11-21T11:53:28;5.75;;;2.92;;
18100;SDS011;9177;49.156;8.142;2023-11-21T11:56:23;5.43;;;2.63;;
18100;SDS011;9177;49.156;8.142;2023-11-21T11:58:55;5.80;;;2.83;;
18100;SDS011;9177;49.156;8.142;2023-11-21T12:01:24;8.18;;;3.05;;
18100;SDS011;9177;49.156;8.142;2023-11-21T12:07:00;8.10;;;2.70;;
18100;SDS011;9177;49.156;8.142;2023-11-21T12:09:29;6.70;;;2.78;;
18100;SDS011;9177;49.156;8.142;2023-11-21T12:11:59;6.63;;;2.70;;
18100;SDS011;9177;49.156;8.142;2023-11-21T12:14:26;6.57;;;2.75;;
18100;SDS011;9177;49.156;8.142;2023-11-21T12:16:54;7.65;;;2.70;;
18100;SDS011;9177;49.156;8.142;2023-11-21T12:19:22;7.55;;;2.97;;
18100;SDS011;9177;49.156;8.142;2023-11-21T12:21:49;4.50;;;2.80;;
18100;SDS011;9177;49.156;8.142;2023-11-21T12:24:17;7.95;;;2.70;;
18100;SDS011;9177;49.156;8.142;2023-11-21T12:26:47;6.53;;;2.40;;
18100;SDS011;9177;49.156;8.142;2023-11-21T12:29:15;7.00;;;2.78;;
18100;SDS011;9177;49.156;8.142;2023-11-21T12:31:43;6.95;;;2.75;;
18100;SDS011;9177;49.156;8.142;2023-11-21T12:34:12;4.68;;;2.70;;
18100;SDS011;9177;49.156;8.142;2023-11-21T12:36:39;6.68;;;2.97;;
18100;SDS011;9177;49.156;8.142;2023-11-21T12:39:06;7.03;;;2.88;;
18100;SDS011;9177;49.156;8.142;2023-11-21T12:41:35;5.90;;;2.58;;
18100;SDS011;9177;49.156;8.142;2023-11-21T12:44:03;5.05;;;2.15;;
18100;SDS011;9177;49.156;8.142;2023-11-21T12:46:37;5.07;;;3.00;;
18100;SDS011;9177;49.156;8.142;2023-11-21T12:49:10;3.47;;;2.13;;
18100;SDS011;9177;49.156;8.142;2023-11-21T12:51:42;4.95;;;2.47;;
18100;SDS011;9177;49.156;8.142;2023-11-21T12:54:10;6.13;;;2.80;;
18100;SDS011;9177;49.156;8.142;2023-11-21T12:56:39;8.15;;;2.67;;
18100;SDS011;9177;49.156;8.142;2023-11-21T12:59:06;4.68;;;2.60;;
18100;SDS011;9177;49.156;8.142;2023-11-21T13:01:39;6.32;;;2.72;;
18100;SDS011;9177;49.156;8.142;2023-11-21T13:04:08;13.00;;;2.95;;
18100;SDS011;9177;49.156;8.142;2023-11-21T13:06:37;3.03;;;2.10;;
18100;SDS011;9177;49.156;8.142;2023-11-21T13:09:06;5.70;;;2.45;;
18100;SDS011;9177;49.156;8.142;2023-11-21T13:11:35;4.65;;;2.50;;
18100;SDS011;9177;49.156;8.142;2023-11-21T13:14:06;3.97;;;2.58;;
18100;SDS011;9177;49.156;8.142;2023-11-21T13:16:33;5.90;;;2.50;;
18100;SDS011;9177;49.156;8.142;2023-11-21T13:19:01;2.90;;;2.20;;
18100;SDS011;9177;49.156;8.142;2023-11-21T13:21:28;4.85;;;2.20;;
18100;SDS011;9177;49.156;8.142;2023-11-21T13:23:56;3.30;;;2.30;;
18100;SDS011;9177;49.156;8.142;2023-11-21T13:26:23;4.53;;;2.03;;
18100;SDS011;9177;49.156;8.142;2023-11-21T13:28:52;5.38;;;2.38;;
18100;SDS011;9177;49.156;8.142;2023-11-21T13:31:19;3.70;;;2.38;;
18100;SDS011;9177;49.156;8.142;2023-11-21T13:33:52;4.57;;;2.00;;
18100;SDS011;9177;49.156;8.142;2023-11-21T13:36:25;7.18;;;2.65;;
18100;SDS011;9177;49.156;8.142;2023-11-21T13:38:56;8.13;;;2.63;;
18100;SDS011;9177;49.156;8.142;2023-11-21T13:41:24;8.45;;;2.60;;
18100;SDS011;9177;49.156;8.142;2023-11-21T13:43:56;5.05;;;2.13;;
18100;SDS011;9177;49.156;8.142;2023-11-21T13:46:31;3.88;;;2.05;;
18100;SDS011;9177;49.156;8.142;2023-11-21T13:49:02;6.03;;;2.22;;
18100;SDS011;9177;49.156;8.142;2023-11-21T13:51:36;9.18;;;2.60;;
18100;SDS011;9177;49.156;8.142;2023-11-21T13:54:09;6.50;;;2.42;;
18100;SDS011;9177;49.156;8.142;2023-11-21T13:56:37;9.02;;;2.60;;
18100;SDS011;9177;49.156;8.142;2023-11-21T13:59:06;5.93;;;2.53;;
18100;SDS011;9177;49.156;8.142;2023-11-21T14:01:42;7.65;;;2.20;;
18100;SDS011;9177;49.156;8.142;2023-11-21T14:04:20;8.98;;;2.72;;
18100;SDS011;9177;49.156;8.142;2023-11-21T14:07:02;6.95;;;2.65;;
18100;SDS011;9177;49.156;8.142;2023-11-21T14:09:47;7.78;;;2.55;;
18100;SDS011;9177;49.156;8.142;2023-11-21T14:12:15;5.82;;;2.40;;
18100;SDS011;9177;49.156;8.142;2023-11-21T14:14:42;8.40;;;2.90;;
18100;SDS011;9177;49.156;8.142;2023-11-21T14:17:12;9.30;;;2.38;;
18100;SDS011;9177;49.156;8.142;2023-11-21T14:19:39;7.45;;;2.90;;
18100;SDS011;9177;49.156;8.142;2023-11-21T14:22:10;5.35;;;2.88;;
18100;SDS011;9177;49.156;8.142;2023-11-21T14:24:38;7.88;;;2.70;;
18100;SDS011;9177;49.156;8.142;2023-11-21T14:27:09;8.73;;;2.45;;
18100;SDS011;9177;49.156;8.142;2023-11-21T14:29:36;9.32;;;2.70;;
18100;SDS011;9177;49.156;8.142;2023-11-21T14:32:07;5.45;;;2.45;;
18100;SDS011;9177;49.156;8.142;2023-11-21T14:34:35;7.30;;;2.90;;
18100;SDS011;9177;49.156;8.142;2023-11-21T14:37:03;7.65;;;2.70;;
18100;SDS011;9177;49.156;8.142;2023-11-21T14:39:32;5.60;;;2.50;;
18100;SDS011;9177;49.156;8.142;2023-11-21T14:42:06;6.75;;;2.50;;
18100;SDS011;9177;49.156;8.142;2023-11-21T14:44:33;6.28;;;2.95;;
18100;SDS011;9177;49.156;8.142;2023-11-21T14:47:05;7.60;;;2.42;;
18100;SDS011;9177;49.156;8.142;2023-11-21T14:49:40;9.10;;;2.60;;
18100;SDS011;9177;49.156;8.142;2023-11-21T14:52:17;6.68;;;2.70;;
18100;SDS011;9177;49.156;8.142;2023-11-21T14:54:59;7.13;;;2.72;;
18100;SDS011;9177;49.156;8.142;2023-11-21T14:57:47;7.95;;;2.63;;
18100;SDS011;9177;49.156;8.142;2023-11-21T15:00:15;6.32;;;2.75;;
18100;SDS011;9177;49.156;8.142;2023-11-21T15:02:57;5.45;;;2.50;;
18100;SDS011;9177;49.156;8.142;2023-11-21T15:05:25;6.13;;;2.70;;
18100;SDS011;9177;49.156;8.142;2023-11-21T15:07:52;11.57;;;2.60;;